Time;durP1;ratioP1;P1;durP2;ratioP2;P2;SDS_P1;SDS_P2;PMS_P1;PMS_P2;Temp;Humidity;BMP_temperature;BMP_pressure;BME280_temperature;BME280_humidity;BME280_pressure;Samples;Min_cycle;Max_cycle;Signal;HPM_P1;HPM_P2
2022/04/14 00:01:34;;;;;;;30.77;16.10;;;;;;;10.22;47.70;100853.41;1822219;78;20943;-71
2022/04/14 00:04:00;;;;;;;29.42;15.45;;;;;;;10.19;47.76;100854.22;1788408;80;21122;-72
2022/04/14 00:06:26;;;;;;;25.55;14.98;;;;;;;10.14;47.83;100856.47;1822187;78;21029;-72
2022/04/14 00:08:52;;;;;;;27.25;14.75;;;;;;;10.09;47.92;100854.30;1788442;80;20937;-72
2022/04/14 00:11:19;;;;;;;27.42;15.05;;;;;;;10.06;48.00;100854.61;1822266;78;20985;-72
2022/04/14 00:13:45;;;;;;;27.20;13.90;;;;;;;10.02;48.07;100850.58;1788505;80;21007;-71
2022/04/14 00:16:11;;;;;;;25.57;14.78;;;;;;;9.99;48.15;100850.89;1822283;78;21177;-71
2022/04/14 00:18:37;;;;;;;26.77;14.87;;;;;;;9.97;48.25;100840.37;1788274;80;20995;-71
2022/04/14 00:21:03;;;;;;;27.07;15.88;;;;;;;9.95;48.32;100844.20;1822410;78;21009;-71
2022/04/14 00:23:29;;;;;;;23.62;14.30;;;;;;;9.94;48.43;100842.52;1788392;80;20954;-71
2022/04/14 00:25:55;;;;;;;27.00;14.90;;;;;;;9.92;48.53;100833.85;1822058;78;21746;-71
2022/04/14 00:28:21;;;;;;;28.87;15.70;;;;;;;9.89;48.58;100842.12;1788322;80;21699;-71
2022/04/14 00:30:47;;;;;;;25.88;13.98;;;;;;;9.83;48.67;100842.75;1822410;78;20962;-71
2022/04/14 00:33:13;;;;;;;23.62;14.30;;;;;;;9.80;48.78;100849.23;1788027;80;21035;-71
2022/04/14 00:35:40;;;;;;;30.88;15.78;;;;;;;9.78;48.86;100854.38;1822498;78;20970;-71
2022/04/14 00:38:06;;;;;;;29.75;15.98;;;;;;;9.75;48.94;100855.99;1788094;80;20999;-72
2022/04/14 00:40:32;;;;;;;30.12;15.10;;;;;;;9.69;49.03;100856.61;1822326;78;21111;-71
2022/04/14 00:42:58;;;;;;;31.85;16.65;;;;;;;9.65;49.09;100852.58;1788168;80;20992;-72
2022/04/14 00:45:24;;;;;;;25.72;15.13;;;;;;;9.58;49.18;100851.52;1822203;78;20946;-71
2022/04/14 00:47:52;;;;;;;28.20;15.58;;;;;;;9.50;49.26;100829.15;1788330;80;21456;-71
2022/04/14 00:50:18;;;;;;;26.33;14.55;;;;;;;9.56;49.34;100833.05;1822342;78;21034;-71
2022/04/14 00:52:45;;;;;;;24.30;14.63;;;;;;;9.57;49.44;100839.21;1788494;80;21094;-71
2022/04/14 00:55:14;;;;;;;22.02;15.03;;;;;;;9.54;49.53;100836.34;1822155;78;21456;-71
2022/04/14 00:57:42;;;;;;;25.35;14.85;;;;;;;9.49;49.62;100830.65;1787178;79;21270;-71
2022/04/14 01:00:08;;;;;;;24.98;14.87;;;;;;;9.44;49.71;100827.11;1822546;78;20967;-72
2022/04/14 01:02:35;;;;;;;29.02;15.03;;;;;;;9.41;49.81;100826.08;1787953;80;21018;-72
2022/04/14 01:05:01;;;;;;;32.05;15.58;;;;;;;9.38;49.88;100825.06;1822296;78;21135;-71
2022/04/14 01:07:27;;;;;;;26.55;15.98;;;;;;;9.34;49.97;100821.52;1787983;80;21067;-71
2022/04/14 01:09:53;;;;;;;27.82;14.65;;;;;;;9.30;50.09;100828.96;1822290;78;20983;-72
2022/04/14 01:12:19;;;;;;;26.33;15.15;;;;;;;9.28;50.16;100824.79;1789941;80;21049;-71
2022/04/14 01:14:45;;;;;;;26.10;15.45;;;;;;;9.25;50.25;100827.75;1822216;78;20980;-72
2022/04/14 01:17:11;;;;;;;25.97;16.10;;;;;;;9.20;50.31;100818.89;1822442;78;21159;-71
2022/04/14 01:19:38;;;;;;;27.42;15.30;;;;;;;9.20;50.40;100818.89;1788227;80;21051;-71
2022/04/14 01:22:24;;;;;;;30.45;14.73;;;;;;;9.19;50.48;100819.86;1822494;78;21430;-71
2022/04/14 01:24:54;;;;;;;27.22;16.32;;;;;;;9.16;50.56;100817.51;1788217;80;21515;-71
2022/04/14 01:27:20;;;;;;;32.08;16.65;;;;;;;9.13;50.65;100815.64;1822150;78;21045;-71
2022/04/14 01:29:46;;;;;;;30.82;16.27;;;;;;;9.09;50.73;100817.77;1788288;80;21015;-71
2022/04/14 01:32:12;;;;;;;31.00;15.35;;;;;;;9.07;50.82;100825.08;1822183;78;21041;-71
2022/04/14 01:34:38;;;;;;;27.02;15.78;;;;;;;9.06;50.91;100823.39;1788379;80;20927;-71
2022/04/14 01:37:04;;;;;;;28.35;15.43;;;;;;;9.06;50.98;100822.06;1822403;78;20903;-71
2022/04/14 01:39:30;;;;;;;26.30;15.13;;;;;;;9.04;51.04;100821.39;1788081;80;21046;-71
2022/04/14 01:41:56;;;;;;;28.30;15.08;;;;;;;9.02;51.10;100820.68;1822100;78;21138;-71
2022/04/14 01:44:22;;;;;;;28.55;16.50;;;;;;;8.97;51.19;100821.64;1788359;80;21038;-71
2022/04/14 01:46:48;;;;;;;27.35;15.78;;;;;;;8.98;51.28;100827.28;1822187;78;20982;-71
2022/04/14 01:49:14;;;;;;;28.12;15.32;;;;;;;8.97;51.35;100824.30;1788344;80;21035;-71
2022/04/14 01:51:40;;;;;;;30.35;16.30;;;;;;;8.94;51.42;100821.91;1822220;78;20966;-71
2022/04/14 01:54:07;;;;;;;26.87;15.65;;;;;;;8.95;51.49;100819.60;1788345;80;21472;-71
2022/04/14 01:56:33;;;;;;;26.40;16.12;;;;;;;8.92;51.56;100820.75;1822430;78;21522;-71
2022/04/14 01:58:59;;;;;;;28.95;16.55;;;;;;;8.91;51.63;100823.55;1788255;80;20935;-71
2022/04/14 02:01:25;;;;;;;25.65;15.95;;;;;;;8.85;51.70;100817.01;1822243;78;21502;-71
2022/04/14 02:03:51;;;;;;;24.32;16.42;;;;;;;8.82;51.77;100822.63;1789760;80;21013;-71
2022/04/14 02:06:17;;;;;;;30.77;17.73;;;;;;;8.79;51.86;100820.76;1822261;78;21118;-71
2022/04/14 02:08:44;;;;;;;28.75;17.82;;;;;;;8.77;51.94;100820.05;1822174;78;20981;-71
2022/04/14 02:11:14;;;;;;;28.70;16.87;;;;;;;8.71;52.00;100822.82;1788316;80;21039;-71
2022/04/14 02:13:38;;;;;;;27.60;17.67;;;;;;;8.66;52.09;100821.56;1788849;80;20974;-71
2022/04/14 02:16:04;;;;;;;29.60;16.73;;;;;;;8.63;52.17;100827.19;1822333;78;20948;-71
2022/04/14 02:18:30;;;;;;;31.57;18.30;;;;;;;8.61;52.25;100823.84;1822357;78;21027;-71
2022/04/14 02:20:56;;;;;;;29.37;17.80;;;;;;;8.57;52.31;100821.13;1788204;80;21031;-71
2022/04/14 02:23:23;;;;;;;31.68;18.15;;;;;;;8.52;52.38;100825.55;1822244;78;21053;-71
2022/04/14 02:25:49;;;;;;;29.23;17.50;;;;;;;8.46;52.47;100824.33;1789648;80;21014;-71
2022/04/14 02:28:15;;;;;;;36.40;18.92;;;;;;;8.40;52.55;100826.73;1790199;78;20944;-71
2022/04/14 02:30:41;;;;;;;30.85;17.77;;;;;;;8.37;52.64;100833.16;1822343;78;21136;-71
2022/04/14 02:33:07;;;;;;;29.63;17.90;;;;;;;8.30;52.74;100825.41;1788179;80;21007;-71
2022/04/14 02:35:33;;;;;;;30.97;17.70;;;;;;;8.24;52.86;100827.30;1822015;78;20978;-71
2022/04/14 02:37:59;;;;;;;30.57;17.70;;;;;;;8.19;52.95;100816.28;1785044;80;20996;-71
2022/04/14 02:40:25;;;;;;;29.30;17.90;;;;;;;8.14;53.07;100810.55;1823134;78;21561;-71
2022/04/14 02:42:53;;;;;;;31.17;17.77;;;;;;;8.10;53.14;100807.83;1823122;78;21133;-71
2022/04/14 02:45:23;;;;;;;32.20;17.98;;;;;;;8.10;53.26;100807.83;1823099;78;20975;-71
2022/04/14 02:47:50;;;;;;;33.65;18.92;;;;;;;8.12;53.36;100808.55;1823148;78;21534;-71
2022/04/14 02:50:16;;;;;;;33.25;19.70;;;;;;;8.17;53.45;100811.59;1823078;77;20987;-71
2022/04/14 02:52:42;;;;;;;33.70;20.75;;;;;;;8.18;53.51;100809.28;1823350;78;20970;-72
2022/04/14 02:55:09;;;;;;;34.10;18.67;;;;;;;8.15;53.56;100806.92;1823037;78;21111;-71
2022/04/14 02:57:35;;;;;;;32.20;19.12;;;;;;;8.12;53.65;100800.58;1823043;78;21605;-71
2022/04/14 03:00:03;;;;;;;31.00;18.80;;;;;;;8.08;53.73;100801.84;1823089;78;20967;-71
2022/04/14 03:02:29;;;;;;;35.17;18.75;;;;;;;8.01;53.84;100802.06;1822982;78;21022;-71
2022/04/14 03:04:55;;;;;;;29.35;18.17;;;;;;;7.95;53.94;100807.96;1823050;78;20971;-71
2022/04/14 03:07:21;;;;;;;32.42;19.40;;;;;;;7.88;54.03;100808.99;1823033;78;21061;-71
2022/04/14 03:09:47;;;;;;;36.45;20.20;;;;;;;7.85;54.13;100801.80;1823210;78;20888;-71
2022/04/14 03:12:13;;;;;;;34.33;21.23;;;;;;;7.93;54.21;100805.44;1823079;78;21002;-71
2022/04/14 03:14:39;;;;;;;31.85;20.57;;;;;;;7.97;54.28;100809.48;1819281;78;21088;-71
2022/04/14 03:17:05;;;;;;;31.07;20.08;;;;;;;7.97;54.49;100800.67;1821621;78;20969;-71
2022/04/14 03:19:31;;;;;;;37.20;20.25;;;;;;;7.97;54.49;100800.67;1823309;78;21139;-71
2022/04/14 03:21:58;;;;;;;34.78;20.15;;;;;;;7.95;54.49;100801.32;1823197;78;21484;-71
2022/04/14 03:24:24;;;;;;;41.73;19.90;;;;;;;7.91;54.60;100801.25;1823328;78;20962;-71
2022/04/14 03:26:51;;;;;;;28.47;19.05;;;;;;;7.98;54.66;100803.69;1823345;78;21002;-71
2022/04/14 03:29:17;;;;;;;37.58;19.27;;;;;;;8.01;54.73;100803.39;1823282;78;20986;-71
2022/04/14 03:31:43;;;;;;;32.35;19.27;;;;;;;7.99;54.78;100798.70;1823502;78;21227;-71
2022/04/14 03:34:09;;;;;;;40.52;20.60;;;;;;;7.97;54.74;100795.36;1823026;78;20887;-71
2022/04/14 03:36:35;;;;;;;35.03;21.73;;;;;;;7.97;54.74;100795.36;1823376;78;21033;-71
2022/04/14 03:39:01;;;;;;;36.13;21.95;;;;;;;7.97;54.98;100795.36;1822732;78;20978;-71
2022/04/14 03:41:27;;;;;;;40.60;20.57;;;;;;;7.97;55.04;100792.70;1822413;78;21014;-71
2022/04/14 03:43:53;;;;;;;44.25;22.17;;;;;;;7.98;55.13;100790.41;1788373;80;21143;-71
2022/04/14 03:46:19;;;;;;;40.05;22.62;;;;;;;7.99;55.17;100788.08;1822427;78;20871;-71
2022/04/14 03:48:46;;;;;;;39.50;22.30;;;;;;;7.97;55.21;100791.38;1788608;80;21413;-71
2022/04/14 03:51:14;;;;;;;39.90;22.45;;;;;;;7.99;55.30;100798.22;1790517;78;20994;-71
2022/04/14 03:53:43;;;;;;;40.80;21.75;;;;;;;8.00;55.34;100791.09;1788574;80;21094;-71
2022/04/14 03:56:10;;;;;;;41.95;21.35;;;;;;;7.99;55.40;100799.55;1822618;78;21498;-72
2022/04/14 03:58:36;;;;;;;40.10;22.25;;;;;;;7.97;55.45;100800.67;1788202;80;21774;-71
2022/04/14 04:01:03;;;;;;;38.17;22.32;;;;;;;7.95;55.53;100803.46;1822306;78;20962;-71
2022/04/14 04:03:29;;;;;;;44.35;23.02;;;;;;;7.94;55.59;100800.97;1788303;80;21000;-71
2022/04/14 04:05:55;;;;;;;37.33;22.95;;;;;;;7.90;55.66;100800.41;1822385;78;20995;-71
2022/04/14 04:08:21;;;;;;;38.53;21.68;;;;;;;7.93;55.70;100798.80;1788335;80;21009;-71
2022/04/14 04:10:47;;;;;;;39.98;21.70;;;;;;;7.90;55.75;100800.91;1822376;78;21025;-71
2022/04/14 04:13:13;;;;;;;37.98;22.25;;;;;;;7.86;55.83;100802.16;1788174;80;20924;-71
2022/04/14 04:15:39;;;;;;;39.10;22.22;;;;;;;7.84;55.90;100800.16;1822497;78;21557;-71
2022/04/14 04:18:06;;;;;;;35.55;21.73;;;;;;;7.80;55.98;100807.56;1788259;80;21641;-71
2022/04/14 04:20:32;;;;;;;39.88;22.25;;;;;;;7.77;56.06;100803.03;1822392;78;21968;-71
2022/04/14 04:22:58;;;;;;;36.05;20.37;;;;;;;7.75;56.13;100806.30;1788350;80;21034;-71
2022/04/14 04:25:24;;;;;;;37.03;22.73;;;;;;;7.73;56.20;100805.61;1822300;78;20978;-71
2022/04/14 04:27:50;;;;;;;42.20;21.62;;;;;;;7.71;56.25;100805.73;1788346;80;20996;-71
2022/04/14 04:30:17;;;;;;;39.58;21.62;;;;;;;7.71;56.31;100812.86;1822151;78;20978;-71
2022/04/14 04:32:43;;;;;;;34.90;21.85;;;;;;;7.72;56.42;100815.88;1788217;80;21118;-71
2022/04/14 04:35:09;;;;;;;37.03;23.18;;;;;;;7.74;56.47;100821.90;1821921;78;20990;-71
2022/04/14 04:37:35;;;;;;;36.88;23.50;;;;;;;7.78;56.55;100824.59;1788408;80;21003;-71
2022/04/14 04:40:01;;;;;;;45.55;25.80;;;;;;;7.84;56.59;100826.70;1822122;78;20942;-71
2022/04/14 04:42:27;;;;;;;44.58;24.75;;;;;;;7.90;56.66;100826.97;1788496;80;21015;-71
2022/04/14 04:44:53;;;;;;;45.63;25.62;;;;;;;7.98;56.69;100828.91;1822479;78;21250;-71
2022/04/14 04:47:22;;;;;;;49.33;28.20;;;;;;;8.06;56.77;100839.64;1788182;80;20955;-71
2022/04/14 04:49:48;;;;;;;53.92;28.57;;;;;;;8.15;56.79;100828.66;1822291;78;21093;-71
2022/04/14 04:52:15;;;;;;;44.55;26.10;;;;;;;8.28;56.86;100830.50;1788134;80;20983;-71
2022/04/14 04:54:41;;;;;;;42.08;25.05;;;;;;;8.42;56.86;100831.40;1822587;78;21002;-71
2022/04/14 04:57:07;;;;;;;43.13;25.97;;;;;;;8.63;56.87;100833.83;1788370;80;21786;-71
2022/04/14 04:59:34;;;;;;;46.13;26.27;;;;;;;8.84;56.88;100827.78;1822580;78;21774;-71
2022/04/14 05:02:00;;;;;;;47.10;26.48;;;;;;;9.01;56.86;100832.30;1788290;80;21007;-71
2022/04/14 05:04:26;;;;;;;46.98;25.40;;;;;;;9.27;56.81;100829.76;1821906;78;21014;-71
2022/04/14 05:06:52;;;;;;;43.05;26.65;;;;;;;9.52;56.76;100825.02;1788312;80;20983;-71
2022/04/14 05:09:18;;;;;;;37.95;22.62;;;;;;;9.78;56.74;100823.75;1821965;78;21113;-71
2022/04/14 05:11:44;;;;;;;47.55;27.82;;;;;;;10.04;56.64;100823.27;1788257;80;21004;-72
2022/04/14 05:14:10;;;;;;;36.03;23.00;;;;;;;10.21;56.48;100822.41;1813141;78;20979;-71
2022/04/14 05:16:37;;;;;;;38.53;21.70;;;;;;;10.34;56.31;100814.84;1808728;78;20975;-72
2022/04/14 05:19:03;;;;;;;41.80;23.75;;;;;;;10.47;56.12;100819.24;1787387;80;21007;-71
2022/04/14 05:21:29;;;;;;;34.98;21.60;;;;;;;10.55;56.00;100817.61;1821972;78;21098;-72
2022/04/14 05:23:55;;;;;;;34.48;21.52;;;;;;;10.70;55.96;100810.66;1788520;80;21074;-72
2022/04/14 05:26:21;;;;;;;36.50;21.93;;;;;;;10.71;55.83;100809.67;1821947;78;21013;-72
2022/04/14 05:28:47;;;;;;;34.05;20.50;;;;;;;10.79;55.77;100813.22;1788343;80;21927;-73
2022/04/14 05:31:13;;;;;;;34.98;20.82;;;;;;;10.96;55.66;100809.60;1819429;77;21498;-73
2022/04/14 05:33:39;;;;;;;34.90;21.60;;;;;;;11.08;55.54;100809.30;1787900;80;21830;-72
2022/04/14 05:36:05;;;;;;;32.33;21.33;;;;;;;11.17;55.39;100808.31;1822193;78;21010;-72
2022/04/14 05:38:31;;;;;;;40.08;25.10;;;;;;;11.20;55.26;100808.82;1762025;80;21482;-73
2022/04/14 05:40:57;;;;;;;39.53;22.98;;;;;;;11.40;55.10;100807.51;1756177;81;20987;-72
2022/04/14 05:43:29;;;;;;;37.83;22.58;;;;;;;11.51;54.95;100812.53;1756345;81;20974;-72
2022/04/14 05:45:51;;;;;;;33.78;21.77;;;;;;;11.68;54.81;100808.02;1754450;81;21148;-72
2022/04/14 05:48:18;;;;;;;44.70;23.73;;;;;;;11.87;54.70;100814.91;1756234;81;20874;-72
2022/04/14 05:50:45;;;;;;;37.20;22.10;;;;;;;12.08;54.52;100809.03;1756846;81;20971;-72
2022/04/14 05:53:11;;;;;;;33.85;21.93;;;;;;;12.29;54.33;100812.84;1756343;81;21452;-72
2022/04/14 05:55:39;;;;;;;45.12;23.98;;;;;;;12.37;54.15;100809.32;1757962;80;21030;-72
2022/04/14 05:58:05;;;;;;;40.23;23.95;;;;;;;12.32;53.96;100800.46;1809928;78;21146;-72
2022/04/14 06:00:32;;;;;;;44.00;25.05;;;;;;;12.35;53.79;100803.32;1802203;78;20985;-72
2022/04/14 06:02:59;;;;;;;59.05;25.52;;;;;;;12.28;53.64;100795.12;1808685;78;21463;-73
2022/04/14 06:05:27;;;;;;;36.77;22.17;;;;;;;12.39;53.58;100805.45;1787868;80;20992;-73
2022/04/14 06:07:54;;;;;;;34.30;21.65;;;;;;;12.53;53.43;100803.91;1822283;78;21482;-73
2022/04/14 06:10:20;;;;;;;39.55;22.30;;;;;;;12.55;53.26;100799.23;1790536;78;21887;-73
2022/04/14 06:12:46;;;;;;;40.40;22.98;;;;;;;12.57;53.14;100799.88;1816881;78;21034;-73
2022/04/14 06:15:13;;;;;;;37.80;22.52;;;;;;;12.69;53.01;100785.13;1767565;78;21023;-73
2022/04/14 06:17:40;;;;;;;39.00;22.70;;;;;;;12.82;52.89;100789.91;1819941;78;21002;-73
2022/04/14 06:20:07;;;;;;;40.28;22.50;;;;;;;13.03;52.77;100794.15;1771561;80;21542;-73
2022/04/14 06:22:40;;;;;;;37.85;24.75;;;;;;;13.34;52.64;100796.83;1805231;78;21020;-73
2022/04/14 06:25:12;;;;;;;41.48;25.08;;;;;;;13.55;52.46;100801.53;1759253;80;21589;-73
2022/04/14 06:27:36;;;;;;;37.88;26.82;;;;;;;13.68;52.29;100800.44;1776427;78;20970;-73
2022/04/14 06:30:02;;;;;;;55.28;25.45;;;;;;;14.14;51.91;100802.03;1820680;78;21023;-73
2022/04/14 06:32:30;;;;;;;61.60;26.35;;;;;;;14.14;51.91;100802.03;1788327;80;21043;-74
2022/04/14 06:34:56;;;;;;;40.50;25.12;;;;;;;14.37;51.86;100797.44;1775478;78;21823;-74
2022/04/14 06:37:22;;;;;;;55.92;25.75;;;;;;;14.59;51.66;100800.22;1771610;79;21042;-74
2022/04/14 06:39:48;;;;;;;39.35;21.90;;;;;;;14.87;51.55;100801.20;1782744;79;20985;-74
2022/04/14 06:42:15;;;;;;;33.70;21.27;;;;;;;15.11;51.31;100798.19;1771974;79;21613;-74
2022/04/14 06:44:41;;;;;;;34.23;20.08;;;;;;;14.95;50.96;100803.25;1766239;80;21005;-74
2022/04/14 06:47:07;;;;;;;30.65;19.82;;;;;;;14.98;50.88;100803.41;1788910;78;21221;-74
2022/04/14 06:49:34;;;;;;;36.05;20.85;;;;;;;15.17;50.70;100808.16;1764547;80;21058;-74
2022/04/14 06:52:01;;;;;;;37.42;21.05;;;;;;;15.29;50.46;100812.03;1757829;80;21021;-74
2022/04/14 06:54:27;;;;;;;29.12;19.40;;;;;;;15.24;50.20;100803.70;1788885;80;21542;-74
2022/04/14 06:56:54;;;;;;;34.90;19.42;;;;;;;15.18;50.03;100804.47;1758351;80;21546;-74
2022/04/14 06:59:20;;;;;;;35.20;21.25;;;;;;;15.21;49.89;100812.14;1798256;78;21158;-74
2022/04/14 07:01:46;;;;;;;38.83;21.42;;;;;;;15.33;49.70;100810.63;1755934;81;21064;-74
2022/04/14 07:04:12;;;;;;;34.45;21.33;;;;;;;15.53;49.49;100805.98;1808360;78;21033;-74
2022/04/14 07:06:38;;;;;;;38.17;21.68;;;;;;;15.82;49.36;100812.58;1756883;80;21039;-74
2022/04/14 07:09:04;;;;;;;32.67;20.48;;;;;;;16.04;49.11;100803.97;1789544;78;20994;-74
2022/04/14 07:11:30;;;;;;;32.98;19.98;;;;;;;16.28;48.94;100808.39;1767039;80;21194;-74
2022/04/14 07:13:58;;;;;;;34.48;19.48;;;;;;;16.42;48.76;100809.30;1791826;80;20982;-74
2022/04/14 07:16:25;;;;;;;33.73;20.55;;;;;;;16.63;48.59;100804.38;1777949;78;21026;-74
2022/04/14 07:18:51;;;;;;;44.60;26.55;;;;;;;16.83;48.33;100803.95;1820677;78;21054;-74
2022/04/14 07:21:17;;;;;;;39.40;21.62;;;;;;;17.05;48.13;100796.06;1807513;78;20974;-74
2022/04/14 07:23:44;;;;;;;50.65;29.85;;;;;;;17.24;47.90;100786.39;1782054;80;21161;-75
2022/04/14 07:26:10;;;;;;;32.08;19.23;;;;;;;17.52;47.70;100782.19;1767041;80;21002;-75
2022/04/14 07:28:36;;;;;;;31.27;19.95;;;;;;;17.74;47.42;100787.71;1785940;79;21002;-75
2022/04/14 07:31:02;;;;;;;27.87;17.95;;;;;;;17.90;47.14;100787.31;1815647;78;21628;-75
2022/04/14 07:33:28;;;;;;;23.90;17.20;;;;;;;18.12;46.96;100789.28;1807421;77;21446;-74
2022/04/14 07:35:54;;;;;;;32.10;18.25;;;;;;;18.31;46.70;100786.53;1814268;78;21807;-75
2022/04/14 07:38:21;;;;;;;28.62;18.12;;;;;;;18.53;46.46;100789.84;1768505;80;21578;-75
2022/04/14 07:40:47;;;;;;;27.95;16.27;;;;;;;18.53;46.13;100783.61;1775702;78;21041;-75
2022/04/14 07:43:13;;;;;;;24.18;16.17;;;;;;;18.62;45.86;100778.27;1788872;79;21531;-75
2022/04/14 07:45:41;;;;;;;32.05;17.75;;;;;;;18.71;45.58;100775.66;1786572;79;21095;-75
2022/04/14 07:48:08;;;;;;;28.67;17.23;;;;;;;18.80;45.19;100781.95;1740484;81;21155;-75
2022/04/14 07:50:34;;;;;;;32.53;19.00;;;;;;;19.07;45.00;100784.00;1790759;79;20927;-75
2022/04/14 07:53:00;;;;;;;30.82;17.05;;;;;;;19.13;44.66;100780.45;1797961;79;21032;-75
2022/04/14 07:55:30;;;;;;;32.42;19.20;;;;;;;19.35;44.39;100789.07;1791114;79;21139;-75
2022/04/14 07:57:58;;;;;;;28.20;16.02;;;;;;;19.56;44.15;100783.86;1820119;78;20991;-76
2022/04/14 08:00:24;;;;;;;31.50;15.63;;;;;;;19.79;43.89;100782.73;1818421;78;21503;-75
2022/04/14 08:02:59;;;;;;;28.57;16.57;;;;;;;20.01;43.68;100779.95;1778126;80;21011;-75
2022/04/14 08:05:32;;;;;;;24.35;15.58;;;;;;;20.13;43.39;100775.45;1822455;78;20963;-75
2022/04/14 08:07:58;;;;;;;26.05;15.78;;;;;;;20.20;43.09;100769.44;1823078;78;21438;-75
2022/04/14 08:10:24;;;;;;;33.78;18.75;;;;;;;20.03;42.70;100773.77;1816904;78;21025;-75
2022/04/14 08:12:50;;;;;;;25.30;14.63;;;;;;;19.85;42.50;100772.37;1796593;78;21125;-75
2022/04/14 08:15:16;;;;;;;27.42;14.65;;;;;;;20.05;42.38;100771.69;1801819;78;20981;-75
2022/04/14 08:17:43;;;;;;;23.95;14.60;;;;;;;20.20;42.13;100774.85;1790934;80;21470;-75
2022/04/14 08:20:11;;;;;;;28.75;14.38;;;;;;;20.35;41.92;100769.12;1806231;78;21005;-75
2022/04/14 08:22:58;;;;;;;21.23;14.33;;;;;;;20.32;41.58;100773.11;1799837;78;21041;-75
2022/04/14 08:25:30;;;;;;;25.85;15.40;;;;;;;20.21;41.24;100772.45;1802073;78;21104;-75
2022/04/14 08:28:01;;;;;;;22.82;14.87;;;;;;;20.21;41.08;100769.75;1790657;80;21024;-75
2022/04/14 08:30:26;;;;;;;25.17;15.05;;;;;;;20.35;40.83;100775.36;1789797;80;21002;-76
2022/04/14 08:32:54;;;;;;;24.67;13.38;;;;;;;20.62;40.75;100769.67;1806233;78;20962;-76
2022/04/14 08:35:20;;;;;;;63.50;14.60;;;;;;;20.85;40.61;100772.50;1812644;78;21010;-76
2022/04/14 08:37:48;;;;;;;18.67;10.72;;;;;;;20.95;40.45;100764.64;1806226;78;21132;-75
2022/04/14 08:40:16;;;;;;;23.35;11.57;;;;;;;20.82;40.06;100756.69;1823475;77;21432;-75
2022/04/14 08:42:51;;;;;;;18.65;12.18;;;;;;;20.86;39.99;100755.19;1805864;78;20962;-75
2022/04/14 08:45:18;;;;;;;23.22;10.80;;;;;;;21.04;39.83;100757.03;1817095;78;20982;-75
2022/04/14 08:47:45;;;;;;;16.40;9.73;;;;;;;21.11;39.60;100751.82;1816807;78;21020;-75
2022/04/14 08:50:14;;;;;;;16.57;10.53;;;;;;;21.05;39.32;100754.08;1773381;78;21712;-75
2022/04/14 08:52:40;;;;;;;17.57;10.28;;;;;;;21.04;39.14;100755.13;1808470;78;21010;-75
2022/04/14 08:55:11;;;;;;;17.07;9.40;;;;;;;21.03;38.76;100749.42;1793297;80;20854;-75
2022/04/14 08:57:41;;;;;;;15.30;10.30;;;;;;;21.04;38.63;100748.90;1799154;78;21013;-75
2022/04/14 09:00:08;;;;;;;23.37;11.33;;;;;;;21.06;38.42;100750.31;1820624;77;21789;-75
2022/04/14 09:02:34;;;;;;;21.20;10.82;;;;;;;21.06;38.42;100750.31;1800713;78;21486;-75
2022/04/14 09:05:01;;;;;;;19.07;11.18;;;;;;;21.03;38.08;100756.20;1819551;78;21022;-75
2022/04/14 09:07:28;;;;;;;20.68;12.10;;;;;;;20.98;37.91;100758.76;1818118;78;20985;-75
2022/04/14 09:09:54;;;;;;;19.20;11.00;;;;;;;20.92;37.72;100752.91;1811068;78;20966;-75
2022/04/14 09:12:20;;;;;;;19.65;12.20;;;;;;;20.87;37.73;100756.81;1808041;78;20982;-75
2022/04/14 09:14:46;;;;;;;23.20;14.25;;;;;;;20.83;37.50;100755.61;1818124;77;21413;-75
2022/04/14 09:17:12;;;;;;;21.85;13.35;;;;;;;20.84;37.34;100755.40;1804480;77;21045;-75
2022/04/14 09:19:38;;;;;;;25.32;14.03;;;;;;;20.80;37.26;100756.08;1806862;77;21040;-75
2022/04/14 09:22:08;;;;;;;23.65;12.68;;;;;;;20.83;37.17;100752.91;1811559;77;21014;-75
2022/04/14 09:24:52;;;;;;;16.85;12.15;;;;;;;20.80;37.09;100741.16;1825198;77;21019;-75
2022/04/14 09:27:31;;;;;;;21.82;12.53;;;;;;;20.93;36.97;100736.95;1807222;77;21137;-75
2022/04/14 09:30:00;;;;;;;18.73;12.53;;;;;;;20.85;36.77;100737.25;1814794;77;20990;-75
2022/04/14 09:32:31;;;;;;;34.43;24.87;;;;;;;20.73;36.76;100737.70;1803457;77;21095;-75
2022/04/14 09:34:58;;;;;;;28.35;13.75;;;;;;;20.72;36.84;100736.88;1811254;77;21536;-75
2022/04/14 09:37:24;;;;;;;18.32;12.35;;;;;;;20.89;36.88;100735.74;1819145;77;21031;-75
2022/04/14 09:40:03;;;;;;;46.45;13.53;;;;;;;20.93;36.87;100735.59;1749465;80;21145;-74
2022/04/14 09:42:34;;;;;;;21.77;12.65;;;;;;;21.06;36.83;100736.75;1761014;79;21023;-74
2022/04/14 09:45:21;;;;;;;41.40;12.73;;;;;;;21.12;36.75;100737.73;1732013;81;21533;-74
2022/04/14 09:47:50;;;;;;;19.75;11.83;;;;;;;21.24;36.66;100732.66;1746705;81;21046;-74
2022/04/14 09:50:39;;;;;;;19.37;12.07;;;;;;;21.33;36.53;100729.91;1759825;80;21569;-75
2022/04/14 09:53:12;;;;;;;20.48;11.53;;;;;;;21.42;36.34;100729.05;1751753;81;21059;-74
2022/04/14 09:55:42;;;;;;;21.77;12.53;;;;;;;21.51;36.19;100720.86;1770094;81;20991;-75
2022/04/14 09:58:17;;;;;;;19.60;12.15;;;;;;;21.68;36.19;100722.34;1750407;81;21011;-74
2022/04/14 10:00:51;;;;;;;20.35;11.80;;;;;;;21.64;36.03;100719.27;1763748;81;21097;-75
2022/04/14 10:03:24;;;;;;;20.23;11.60;;;;;;;21.63;35.89;100712.73;1770332;80;21042;-75
2022/04/14 10:05:55;;;;;;;21.77;11.10;;;;;;;21.77;35.81;100706.02;1770077;81;21829;-75
2022/04/14 10:08:22;;;;;;;18.95;10.58;;;;;;;21.94;35.74;100704.28;1769201;80;20991;-75
2022/04/14 10:10:49;;;;;;;18.57;11.48;;;;;;;21.99;35.55;100708.45;1770271;81;21007;-75
2022/04/14 10:13:18;;;;;;;26.93;11.43;;;;;;;22.05;35.48;100706.17;1770360;80;20952;-75
2022/04/14 10:15:46;;;;;;;25.02;12.80;;;;;;;22.15;35.38;100710.99;1750274;80;21003;-75
2022/04/14 10:18:17;;;;;;;21.95;11.38;;;;;;;22.33;35.33;100705.42;1768377;81;21301;-75
2022/04/14 10:20:45;;;;;;;21.40;10.65;;;;;;;22.48;35.21;100700.84;1767725;81;21007;-75
2022/04/14 10:23:14;;;;;;;20.55;12.20;;;;;;;22.75;35.07;100702.79;1756589;80;21034;-75
2022/04/14 10:25:42;;;;;;;26.42;11.70;;;;;;;23.01;34.89;100706.80;1751846;80;21019;-75
2022/04/14 10:28:14;;;;;;;17.75;9.90;;;;;;;23.07;34.63;100704.48;1739210;82;21035;-75
2022/04/14 10:30:49;;;;;;;21.90;11.85;;;;;;;23.10;34.46;100697.72;1739609;81;22324;-75
2022/04/14 10:33:15;;;;;;;15.98;10.50;;;;;;;23.12;34.31;100703.20;1739502;82;21034;-75
2022/04/14 10:35:41;;;;;;;17.90;9.08;;;;;;;22.96;34.12;100704.00;1739601;81;32769;-75
2022/04/14 10:38:37;;;;;;;14.05;8.93;;;;;;;22.89;34.05;100700.60;1686503;82;20899;-76
2022/04/14 10:41:19;;;;;;;17.45;9.83;;;;;;;22.71;33.93;100703.51;1765314;79;20990;-75
2022/04/14 10:43:46;;;;;;;14.90;8.88;;;;;;;22.68;33.86;100701.27;1788268;79;21349;-75
2022/04/14 10:46:16;;;;;;;19.98;9.23;;;;;;;22.62;33.69;100696.25;1812274;79;21032;-75
2022/04/14 10:48:46;;;;;;;13.85;8.55;;;;;;;22.50;33.69;100708.20;1770249;80;21457;-75
2022/04/14 10:51:30;;;;;;;;;;;;;;;22.36;33.63;100707.66;1756045;80;21051;-75
2022/04/14 10:54:00;;;;;;;28.73;8.78;;;;;;;22.24;33.57;100699.52;1781347;79;20152;-75
2022/04/14 10:56:35;;;;;;;;;;;;;;;22.26;33.69;100702.00;1763878;81;21283;-75
2022/04/14 10:59:05;;;;;;;25.90;10.32;;;;;;;22.28;33.71;100708.84;1780471;80;20147;-75
2022/04/14 11:01:51;;;;;;;21.87;10.13;;;;;;;22.20;33.78;100703.77;1788027;79;21465;-76
2022/04/14 11:04:36;;;;;;;25.70;10.93;;;;;;;22.22;33.79;100707.63;1769071;80;21015;-76
2022/04/14 11:07:13;;;;;;;19.77;11.35;;;;;;;22.16;33.80;100709.41;1760129;80;21054;-76
2022/04/14 11:09:52;;;;;;;22.50;11.30;;;;;;;22.23;33.86;100706.03;1762102;80;21051;-76
2022/04/14 11:12:40;;;;;;;17.27;10.35;;;;;;;22.31;33.83;100707.53;1775935;80;21063;-76
2022/04/14 11:15:08;;;;;;;16.75;10.55;;;;;;;22.33;33.75;100703.53;1762070;80;21492;-74
2022/04/14 11:17:42;;;;;;;17.30;10.18;;;;;;;22.31;33.65;100711.08;1783184;78;21018;-74